Time;durP1;ratioP1;P1;durP2;ratioP2;P2;SDS_P1;SDS_P2;PMS_P1;PMS_P2;Temp;Humidity;BMP_temperature;BMP_pressure;BME280_temperature;BME280_humidity;BME280_pressure;Samples;Min_cycle;Max_cycle;Signal;HPM_P1;HPM_P2
2021/03/17 00:01:27;;;;;;;29.80;15.75;;;6.10;99.90;;;;;;5077024;28;19928;-79
2021/03/17 00:04:02;;;;;;;32.60;16.48;;;6.10;99.90;;;;;;5080839;28;20063;-80
2021/03/17 00:06:39;;;;;;;32.22;17.67;;;6.10;99.90;;;;;;5077140;28;20533;-79
2021/03/17 00:09:13;;;;;;;38.72;19.40;;;6.10;99.90;;;;;;5076976;28;20068;-80
2021/03/17 00:11:39;;;;;;;34.83;18.75;;;6.10;99.90;;;;;;5075990;28;20056;-79
2021/03/17 00:14:08;;;;;;;37.70;18.90;;;6.10;99.90;;;;;;5081211;28;20044;-79
2021/03/17 00:16:36;;;;;;;35.30;19.80;;;6.10;99.90;;;;;;5082120;28;20044;-80
2021/03/17 00:19:03;;;;;;;34.35;18.58;;;6.10;99.90;;;;;;5079417;28;20056;-79
2021/03/17 00:21:29;;;;;;;35.03;19.23;;;6.10;99.90;;;;;;5079285;28;20162;-77
2021/03/17 00:23:57;;;;;;;36.25;19.63;;;6.10;99.90;;;;;;5081887;28;20205;-78
2021/03/17 00:26:23;;;;;;;32.13;17.50;;;6.10;99.90;;;;;;5078504;28;20060;-80
2021/03/17 00:28:50;;;;;;;33.00;18.23;;;6.20;99.90;;;;;;5079055;28;20143;-80
2021/03/17 00:31:17;;;;;;;48.78;28.20;;;6.20;99.90;;;;;;5078940;28;20088;-80
2021/03/17 00:36:36;;;;;;;32.50;19.70;;;6.10;99.90;;;;;;5077007;28;20244;-80
2021/03/17 00:39:12;;;;;;;35.63;18.42;;;6.10;99.90;;;;;;5078586;28;20052;-80
2021/03/17 00:42:03;;;;;;;35.63;18.00;;;6.10;99.90;;;;;;5077923;28;20106;-80
2021/03/17 00:44:37;;;;;;;33.85;17.90;;;6.10;99.90;;;;;;5078573;28;20048;-80
2021/03/17 00:47:45;;;;;;;34.08;19.65;;;6.10;99.90;;;;;;5078624;28;20056;-80
2021/03/17 00:50:50;;;;;;;36.50;19.13;;;6.10;99.90;;;;;;5078880;28;20082;-80
2021/03/17 00:53:33;;;;;;;37.22;20.42;;;6.10;99.90;;;;;;5079617;28;20064;-80
2021/03/17 01:02:40;;;;;;;43.75;23.35;;;6.00;99.90;;;;;;5052707;28;20048;-79
2021/03/17 01:05:19;;;;;;;49.67;24.55;;;6.00;99.90;;;;;;5078303;28;20063;-80
2021/03/17 01:18:29;;;;;;;55.38;30.33;;;6.10;99.90;;;;;;5067249;28;20105;-81
2021/03/17 01:24:29;;;;;;;43.78;24.95;;;6.00;99.90;;;;;;5078889;28;20056;-81
2021/03/17 01:26:56;;;;;;;40.13;23.85;;;6.10;99.90;;;;;;5079553;28;20048;-83
2021/03/17 01:29:31;;;;;;;39.30;22.55;;;6.10;99.90;;;;;;5080430;28;20132;-81
2021/03/17 01:32:24;;;;;;;41.17;22.65;;;6.00;99.90;;;;;;5082496;28;20135;-84
2021/03/17 01:35:02;;;;;;;35.70;21.08;;;6.00;99.90;;;;;;5084664;28;20045;-82
2021/03/17 01:37:34;;;;;;;35.40;20.38;;;6.00;99.90;;;;;;5085015;28;20049;-82
2021/03/17 01:40:11;;;;;;;34.88;20.02;;;6.00;99.90;;;;;;5083206;28;20056;-81
2021/03/17 01:42:44;;;;;;;32.88;19.80;;;6.00;99.90;;;;;;5082712;28;20045;-82
2021/03/17 01:45:14;;;;;;;28.73;17.58;;;5.90;99.90;;;;;;5082149;28;20059;-82
2021/03/17 01:47:44;;;;;;;31.73;18.42;;;6.00;99.90;;;;;;5081884;28;20559;-82
2021/03/17 01:50:14;;;;;;;31.50;17.63;;;6.10;99.90;;;;;;5081838;28;20056;-82
2021/03/17 01:52:41;;;;;;;26.88;16.70;;;6.00;99.90;;;;;;5081574;28;20068;-82
2021/03/17 01:55:09;;;;;;;26.38;14.90;;;6.00;99.90;;;;;;5081494;28;20048;-82
2021/03/17 01:57:36;;;;;;;23.75;14.23;;;5.90;99.90;;;;;;5082422;28;20091;-82
2021/03/17 02:00:07;;;;;;;22.00;13.57;;;5.90;99.90;;;;;;5080196;28;20068;-82
2021/03/17 02:02:35;;;;;;;23.45;13.73;;;5.80;99.90;;;;;;5082011;28;20064;-81
2021/03/17 02:05:05;;;;;;;26.77;15.18;;;5.80;99.90;;;;;;5089870;28;20055;-81
2021/03/17 02:10:42;;;;;;;30.70;17.02;;;5.80;99.90;;;;;;5082289;28;20061;-81
2021/03/17 02:13:53;;;;;;;29.95;17.55;;;5.80;99.90;;;;;;5083269;28;20514;-82
2021/03/17 02:16:27;;;;;;;26.80;16.90;;;5.80;99.90;;;;;;5072683;28;20442;-82
2021/03/17 02:19:39;;;;;;;30.02;17.50;;;5.80;99.90;;;;;;5079916;28;20057;-83
2021/03/17 02:22:35;;;;;;;32.60;19.25;;;5.70;99.90;;;;;;5081354;28;20053;-81
2021/03/17 02:25:06;;;;;;;33.35;18.35;;;5.70;99.90;;;;;;5080411;28;20052;-82
2021/03/17 02:27:58;;;;;;;32.60;19.92;;;5.70;99.90;;;;;;5081693;28;20525;-82
2021/03/17 02:31:04;;;;;;;32.53;20.30;;;5.70;99.90;;;;;;5081257;28;20044;-83
2021/03/17 02:33:53;;;;;;;35.63;20.88;;;5.80;99.90;;;;;;5080279;28;20079;-83
2021/03/17 02:36:29;;;;;;;36.97;21.92;;;5.80;99.90;;;;;;5087609;28;20041;-82
2021/03/17 02:39:06;;;;;;;37.67;21.27;;;5.80;99.90;;;;;;5093794;28;20056;-83
2021/03/17 02:41:49;;;;;;;34.35;20.48;;;5.80;99.90;;;;;;5088634;28;20067;-82
2021/03/17 02:44:20;;;;;;;38.65;20.23;;;5.80;99.90;;;;;;5078820;28;20107;-81
2021/03/17 02:46:48;;;;;;;33.80;18.35;;;5.80;99.90;;;;;;5077346;28;20102;-81
2021/03/17 02:49:34;;;;;;;26.75;16.45;;;5.80;99.90;;;;;;5077092;28;20053;-82
2021/03/17 02:52:02;;;;;;;26.02;14.88;;;5.80;99.90;;;;;;5078205;28;20538;-81
2021/03/17 02:54:30;;;;;;;20.17;13.32;;;5.70;99.90;;;;;;5081213;28;20063;-81
2021/03/17 02:57:00;;;;;;;19.88;12.63;;;5.70;99.90;;;;;;5080861;28;20056;-80
2021/03/17 02:59:30;;;;;;;17.17;11.60;;;5.70;99.90;;;;;;5083760;28;20053;-81
2021/03/17 03:02:00;;;;;;;19.77;11.80;;;5.60;99.90;;;;;;5081563;28;20151;-81
2021/03/17 03:04:29;;;;;;;17.75;12.10;;;5.60;99.90;;;;;;5080581;28;20067;-81
2021/03/17 03:06:57;;;;;;;19.10;12.23;;;5.60;99.90;;;;;;5081012;28;20071;-82
2021/03/17 03:09:34;;;;;;;16.42;10.43;;;5.60;99.90;;;;;;5081519;28;20052;-83
2021/03/17 03:12:02;;;;;;;15.93;11.50;;;5.60;99.90;;;;;;5080586;28;20533;-81
2021/03/17 03:14:32;;;;;;;21.75;11.90;;;5.60;99.90;;;;;;5080553;28;20074;-83
2021/03/17 03:17:02;;;;;;;16.25;11.65;;;5.60;99.90;;;;;;5078875;28;20509;-81
2021/03/17 03:19:33;;;;;;;20.45;12.45;;;5.60;99.90;;;;;;5129927;22;20502;-78
2021/03/17 03:22:00;;;;;;;16.27;11.15;;;5.60;99.90;;;;;;5086160;28;20056;-78
2021/03/17 03:24:28;;;;;;;18.42;11.55;;;5.60;99.90;;;;;;5094385;28;20492;-77
2021/03/17 03:26:55;;;;;;;17.38;11.23;;;5.60;99.90;;;;;;5094116;28;20093;-78
2021/03/17 03:29:22;;;;;;;18.70;11.07;;;5.60;99.90;;;;;;5095159;28;20052;-78
2021/03/17 03:31:48;;;;;;;18.55;11.52;;;5.60;99.90;;;;;;5094671;28;20056;-78
2021/03/17 03:34:15;;;;;;;16.33;11.18;;;5.50;99.90;;;;;;5094767;28;20048;-77
2021/03/17 03:36:44;;;;;;;13.00;8.95;;;5.50;99.90;;;;;;5094315;28;20162;-77
2021/03/17 03:39:13;;;;;;;17.13;9.07;;;5.50;99.90;;;;;;5096820;28;20094;-78
2021/03/17 03:41:40;;;;;;;15.35;9.63;;;5.40;99.90;;;;;;5101901;28;20105;-79
2021/03/17 03:44:07;;;;;;;14.27;9.13;;;5.40;99.90;;;;;;5099593;28;20047;-78
2021/03/17 03:46:34;;;;;;;14.85;9.57;;;5.40;99.90;;;;;;5098442;28;20054;-79
2021/03/17 03:49:01;;;;;;;13.43;9.82;;;5.30;99.90;;;;;;5100285;28;20107;-80
2021/03/17 03:51:28;;;;;;;13.68;9.90;;;5.40;99.90;;;;;;5101028;28;20079;-81
2021/03/17 03:54:07;;;;;;;16.20;10.02;;;5.40;99.90;;;;;;5100272;28;20127;-80
2021/03/17 03:56:40;;;;;;;14.10;9.70;;;5.40;99.90;;;;;;5100306;28;20044;-79
2021/03/17 03:59:09;;;;;;;13.82;9.57;;;5.40;99.90;;;;;;5100841;28;20135;-77
2021/03/17 04:01:47;;;;;;;14.73;9.63;;;5.30;99.90;;;;;;5099070;28;20044;-78
2021/03/17 04:04:16;;;;;;;14.90;10.75;;;5.30;99.90;;;;;;5098673;28;20082;-78
2021/03/17 04:06:47;;;;;;;16.60;10.45;;;5.30;99.90;;;;;;5099810;28;20076;-79
2021/03/17 04:09:16;;;;;;;14.40;10.48;;;5.40;99.90;;;;;;5100063;28;20127;-79
2021/03/17 04:11:45;;;;;;;17.75;11.10;;;5.40;99.90;;;;;;5100493;28;20052;-79
2021/03/17 04:14:12;;;;;;;19.98;11.23;;;5.30;99.90;;;;;;5100708;28;20071;-80
2021/03/17 04:16:42;;;;;;;16.42;10.95;;;5.30;99.90;;;;;;5100840;28;20054;-78
2021/03/17 04:19:09;;;;;;;16.10;11.90;;;5.30;99.90;;;;;;5100159;28;20119;-79
2021/03/17 04:21:40;;;;;;;17.63;12.85;;;5.30;99.90;;;;;;5099686;28;20101;-79
2021/03/17 04:24:08;;;;;;;17.50;11.88;;;5.30;99.90;;;;;;5099567;28;20112;-79
2021/03/17 04:26:37;;;;;;;15.88;11.40;;;5.30;99.90;;;;;;5100123;28;20127;-79
2021/03/17 04:29:05;;;;;;;13.75;9.95;;;5.30;99.90;;;;;;5100973;28;20155;-81
2021/03/17 04:31:33;;;;;;;15.20;10.90;;;5.20;99.90;;;;;;5099567;28;20181;-82
2021/03/17 04:34:01;;;;;;;14.98;9.73;;;5.20;99.90;;;;;;5099389;28;20075;-81
2021/03/17 04:36:28;;;;;;;13.07;9.85;;;5.20;99.90;;;;;;5099865;28;20046;-80
2021/03/17 04:38:55;;;;;;;15.95;9.40;;;5.10;99.90;;;;;;5099919;28;20079;-81
2021/03/17 04:41:22;;;;;;;12.88;8.75;;;5.20;99.90;;;;;;5099617;28;20052;-79
2021/03/17 04:43:49;;;;;;;11.27;8.13;;;5.10;99.90;;;;;;5099527;28;20048;-79
2021/03/17 04:46:17;;;;;;;13.07;9.18;;;5.00;99.90;;;;;;5099474;28;20047;-78
2021/03/17 04:48:46;;;;;;;14.63;11.20;;;5.00;99.90;;;;;;5099324;28;20062;-80
2021/03/17 04:51:15;;;;;;;13.75;10.25;;;5.00;99.90;;;;;;5098917;28;20056;-79
2021/03/17 04:53:42;;;;;;;13.02;10.18;;;5.10;99.90;;;;;;5099995;28;20153;-80
2021/03/17 04:56:09;;;;;;;13.60;9.68;;;5.00;99.90;;;;;;5099229;28;20079;-79
2021/03/17 04:58:37;;;;;;;13.20;9.02;;;5.00;99.90;;;;;;5099264;28;20048;-80
2021/03/17 05:01:07;;;;;;;11.75;9.07;;;5.00;99.90;;;;;;5099753;28;20134;-80
2021/03/17 05:03:35;;;;;;;11.52;9.07;;;5.00;99.90;;;;;;5099133;28;20570;-79
2021/03/17 05:06:03;;;;;;;11.57;8.80;;;5.00;99.90;;;;;;5101432;28;20163;-79
2021/03/17 05:08:31;;;;;;;10.10;8.40;;;4.90;99.90;;;;;;5106462;28;20055;-80
2021/03/17 05:10:58;;;;;;;11.45;8.10;;;5.00;99.90;;;;;;5103526;28;20082;-80
2021/03/17 05:13:25;;;;;;;10.63;8.38;;;4.90;99.90;;;;;;5103482;28;20055;-79
2021/03/17 05:15:54;;;;;;;10.95;8.20;;;4.90;99.90;;;;;;5103206;28;20059;-80
2021/03/17 05:18:23;;;;;;;11.75;9.02;;;5.00;99.90;;;;;;5102740;28;20131;-81
2021/03/17 05:20:51;;;;;;;12.60;9.02;;;5.00;99.90;;;;;;5102847;28;20048;-79
2021/03/17 05:23:18;;;;;;;12.32;9.65;;;5.00;99.90;;;;;;5104948;28;20091;-78
2021/03/17 05:25:45;;;;;;;14.75;9.60;;;5.00;99.90;;;;;;5102393;28;20052;-79
2021/03/17 05:28:14;;;;;;;12.80;9.88;;;5.00;99.90;;;;;;5102560;28;20103;-79
2021/03/17 05:30:43;;;;;;;15.25;10.43;;;5.00;99.90;;;;;;5103516;28;20072;-79
2021/03/17 05:33:12;;;;;;;14.15;10.45;;;5.00;99.90;;;;;;5102702;28;20574;-79
2021/03/17 05:35:40;;;;;;;15.32;11.55;;;5.10;99.90;;;;;;5100930;28;20048;-78
2021/03/17 05:38:07;;;;;;;14.07;10.57;;;5.10;99.90;;;;;;5098022;28;20054;-78
2021/03/17 05:40:35;;;;;;;16.23;11.63;;;5.10;99.90;;;;;;5097821;28;20465;-77
2021/03/17 05:43:04;;;;;;;14.93;12.25;;;5.10;99.90;;;;;;5097581;28;20089;-78
2021/03/17 05:45:33;;;;;;;17.10;13.00;;;5.10;99.90;;;;;;5100479;28;20091;-79
2021/03/17 05:48:00;;;;;;;18.42;12.25;;;5.10;99.90;;;;;;5103631;28;20079;-79
2021/03/17 05:50:27;;;;;;;16.27;12.60;;;5.10;99.90;;;;;;5105733;28;20072;-80
2021/03/17 05:52:54;;;;;;;18.15;13.57;;;5.10;99.90;;;;;;5110455;28;20048;-80
2021/03/17 05:55:20;;;;;;;18.95;12.80;;;5.10;99.90;;;;;;5113864;28;20100;-80
2021/03/17 05:57:47;;;;;;;18.55;12.63;;;5.10;99.90;;;;;;5112720;28;20075;-79
2021/03/17 06:00:15;;;;;;;19.80;13.10;;;5.10;99.90;;;;;;5108309;28;20079;-80
2021/03/17 06:02:42;;;;;;;17.45;12.73;;;5.10;99.90;;;;;;5111572;28;20080;-80
2021/03/17 06:05:11;;;;;;;19.30;12.93;;;5.20;99.90;;;;;;5110692;28;20108;-78
2021/03/17 06:07:42;;;;;;;18.88;13.40;;;5.20;99.90;;;;;;5109919;28;20062;-79
2021/03/17 06:10:11;;;;;;;17.90;13.25;;;5.20;99.90;;;;;;5110155;28;20052;-80
2021/03/17 06:12:38;;;;;;;18.50;13.45;;;5.20;99.90;;;;;;5105449;28;20130;-79
2021/03/17 06:15:07;;;;;;;16.70;12.82;;;5.20;99.90;;;;;;5107418;28;20097;-80
2021/03/17 06:17:35;;;;;;;18.42;12.82;;;5.20;99.90;;;;;;5109990;28;20055;-80
2021/03/17 06:20:05;;;;;;;18.63;13.13;;;5.20;99.90;;;;;;5108613;28;20052;-80
2021/03/17 06:22:33;;;;;;;18.80;13.27;;;5.20;99.90;;;;;;5108559;28;20056;-80
2021/03/17 06:25:03;;;;;;;19.13;12.98;;;5.20;99.90;;;;;;5106303;28;20076;-80
2021/03/17 06:27:31;;;;;;;19.27;13.30;;;5.20;99.90;;;;;;5103070;28;20138;-81
2021/03/17 06:29:58;;;;;;;19.60;13.45;;;5.20;99.90;;;;;;5103197;28;20079;-78
2021/03/17 06:32:25;;;;;;;19.40;14.05;;;5.20;99.90;;;;;;5102820;28;20075;-80
2021/03/17 06:34:52;;;;;;;19.92;14.07;;;5.20;99.90;;;;;;5105363;28;20070;-81
2021/03/17 06:37:33;;;;;;;20.35;14.00;;;5.20;99.90;;;;;;5103396;28;20048;-80
2021/03/17 06:40:00;;;;;;;18.08;12.95;;;5.20;99.90;;;;;;5102308;28;20509;-80
2021/03/17 06:42:40;;;;;;;19.33;12.50;;;5.30;99.90;;;;;;5102344;28;20063;-78
2021/03/17 06:45:08;;;;;;;17.95;12.85;;;5.30;99.90;;;;;;5102908;28;20048;-79
2021/03/17 06:47:35;;;;;;;18.88;12.93;;;5.30;99.90;;;;;;5102055;28;20062;-79
2021/03/17 06:50:07;;;;;;;16.85;12.50;;;5.30;99.90;;;;;;5101810;28;20062;-79
2021/03/17 06:52:35;;;;;;;19.23;12.55;;;5.40;99.90;;;;;;5102148;28;20076;-80
2021/03/17 06:55:13;;;;;;;17.95;11.77;;;5.40;99.90;;;;;;5102360;28;20043;-81
2021/03/17 06:57:42;;;;;;;17.67;12.20;;;5.40;99.90;;;;;;5102136;28;20127;-81
2021/03/17 07:00:21;;;;;;;18.98;12.88;;;5.40;99.90;;;;;;5101947;28;20127;-82
2021/03/17 07:02:55;;;;;;;19.00;12.95;;;5.50;99.90;;;;;;5102954;28;20132;-82
2021/03/17 07:05:32;;;;;;;18.60;12.65;;;5.50;99.90;;;;;;5102540;28;20079;-80
2021/03/17 07:07:59;;;;;;;15.98;12.00;;;5.50;99.90;;;;;;5101417;28;20105;-82
2021/03/17 07:10:44;;;;;;;15.95;11.65;;;5.60;99.90;;;;;;5102227;28;20071;-81
2021/03/17 07:13:14;;;;;;;18.00;11.95;;;5.60;99.90;;;;;;5102501;28;20127;-80
2021/03/17 07:15:42;;;;;;;16.83;11.73;;;5.60;99.90;;;;;;5100866;28;20097;-81
2021/03/17 07:18:19;;;;;;;17.23;12.30;;;5.60;99.90;;;;;;5101818;28;20048;-82
2021/03/17 07:20:49;;;;;;;17.85;13.07;;;5.70;99.90;;;;;;5103626;28;20056;-81
2021/03/17 07:23:24;;;;;;;15.75;11.43;;;5.60;99.90;;;;;;5102353;28;20108;-80
2021/03/17 07:26:19;;;;;;;15.90;11.55;;;5.70;99.90;;;;;;5103555;28;20147;-81
2021/03/17 07:28:55;;;;;;;15.68;11.40;;;5.60;99.90;;;;;;5103226;28;20052;-82
2021/03/17 07:31:22;;;;;;;15.73;11.90;;;5.60;99.90;;;;;;5100886;28;20052;-81
2021/03/17 07:33:50;;;;;;;17.33;12.52;;;5.70;99.90;;;;;;5100401;28;20490;-79
2021/03/17 07:36:31;;;;;;;15.15;11.55;;;5.80;99.90;;;;;;5096695;28;20050;-80
2021/03/17 07:38:59;;;;;;;15.25;11.63;;;5.80;99.90;;;;;;5101320;28;20059;-78
2021/03/17 07:41:26;;;;;;;16.05;11.82;;;5.80;99.90;;;;;;5103097;28;20052;-78
2021/03/17 07:43:54;;;;;;;14.15;10.68;;;5.90;99.90;;;;;;5103241;28;20051;-78
2021/03/17 07:46:22;;;;;;;13.88;10.52;;;5.90;99.90;;;;;;5081966;28;20049;-79
2021/03/17 07:48:50;;;;;;;14.25;11.10;;;5.90;99.90;;;;;;5080336;28;20075;-79
2021/03/17 07:51:18;;;;;;;14.25;10.65;;;6.00;99.90;;;;;;5080335;28;20135;-79
2021/03/17 07:53:48;;;;;;;13.88;10.60;;;6.00;99.90;;;;;;5080097;28;20048;-81
2021/03/17 07:56:17;;;;;;;17.27;11.52;;;6.10;99.90;;;;;;5081769;28;20527;-79
2021/03/17 07:58:44;;;;;;;14.90;11.38;;;6.00;99.90;;;;;;5080811;28;20089;-80
2021/03/17 08:01:11;;;;;;;16.35;11.55;;;6.00;99.90;;;;;;5081592;28;20075;-80
2021/03/17 08:03:40;;;;;;;14.68;10.68;;;6.00;99.90;;;;;;5080365;28;20044;-78
2021/03/17 08:06:06;;;;;;;14.02;10.40;;;6.00;99.90;;;;;;5077568;28;20079;-78
2021/03/17 08:08:34;;;;;;;14.93;10.98;;;6.00;99.90;;;;;;5075515;28;20151;-78
2021/03/17 08:11:02;;;;;;;14.82;10.85;;;6.00;99.90;;;;;;5076142;28;20139;-81
2021/03/17 08:13:30;;;;;;;15.25;11.40;;;5.90;99.90;;;;;;5083568;28;20044;-79
2021/03/17 08:15:57;;;;;;;17.05;12.98;;;5.90;99.90;;;;;;5078531;28;20068;-81
2021/03/17 08:18:45;;;;;;;20.00;13.35;;;5.90;99.90;;;;;;5081009;28;20048;-78
2021/03/17 08:21:12;;;;;;;20.15;14.15;;;5.90;99.90;;;;;;5077712;28;20088;-80
2021/03/17 08:23:50;;;;;;;22.35;14.93;;;5.90;99.90;;;;;;5079774;28;20131;-81
2021/03/17 08:26:44;;;;;;;18.17;13.70;;;6.00;99.90;;;;;;5075011;28;20044;-79
2021/03/17 08:29:15;;;;;;;17.20;13.48;;;6.10;99.90;;;;;;5074744;28;20147;-80
2021/03/17 08:31:52;;;;;;;18.02;13.10;;;6.10;99.90;;;;;;5079113;28;20048;-78
2021/03/17 08:34:27;;;;;;;20.80;13.13;;;6.30;99.90;;;;;;5079579;28;20079;-80
2021/03/17 08:36:55;;;;;;;17.73;13.10;;;6.40;99.90;;;;;;5078754;28;20052;-77
2021/03/17 08:39:40;;;;;;;17.80;13.15;;;6.50;99.90;;;;;;5078157;28;20147;-79
2021/03/17 08:42:07;;;;;;;17.80;12.95;;;6.60;99.90;;;;;;5078441;28;20045;-80
2021/03/17 08:44:44;;;;;;;16.20;12.93;;;6.70;99.90;;;;;;5086520;28;20107;-79
2021/03/17 08:47:20;;;;;;;16.52;12.27;;;6.90;99.90;;;;;;5098232;28;20051;-82
2021/03/17 08:49:48;;;;;;;17.15;11.45;;;7.20;99.90;;;;;;5097843;28;20086;-80
2021/03/17 08:52:16;;;;;;;16.50;11.32;;;7.40;99.90;;;;;;5094645;28;20220;-79
2021/03/17 08:54:51;;;;;;;18.17;12.15;;;7.60;99.90;;;;;;5093642;28;20058;-81
2021/03/17 08:57:19;;;;;;;20.40;13.00;;;7.40;99.90;;;;;;5092531;28;20425;-79
2021/03/17 08:59:47;;;;;;;15.13;12.32;;;7.20;99.90;;;;;;5093040;28;20467;-79
2021/03/17 09:02:53;;;;;;;16.42;12.27;;;7.10;99.90;;;;;;5094030;28;20059;-77
2021/03/17 09:05:21;;;;;;;14.20;11.00;;;7.10;99.90;;;;;;5082400;28;20048;-78
2021/03/17 09:08:02;;;;;;;13.65;10.40;;;7.40;99.90;;;;;;5093092;28;20139;-78
2021/03/17 09:10:47;;;;;;;14.23;9.77;;;7.80;99.90;;;;;;5094111;28;20044;-78
2021/03/17 09:13:15;;;;;;;14.23;10.43;;;7.90;99.90;;;;;;5094107;28;20050;-78
2021/03/17 09:15:47;;;;;;;15.07;10.55;;;7.90;99.90;;;;;;5093741;28;20079;-80
2021/03/17 09:20:44;;;;;;;17.77;10.85;;;7.80;99.90;;;;;;5109602;22;20052;-74
2021/03/17 09:23:13;;;;;;;14.35;10.07;;;7.70;99.90;;;;;;5091538;28;20390;-74
2021/03/17 09:25:43;;;;;;;13.98;10.32;;;7.60;99.90;;;;;;5090671;28;20477;-74
2021/03/17 09:28:11;;;;;;;16.30;10.23;;;7.50;99.90;;;;;;5090022;28;20062;-74
2021/03/17 09:30:47;;;;;;;19.67;10.52;;;7.40;99.90;;;;;;5090535;28;20108;-75
2021/03/17 09:33:16;;;;;;;13.93;10.85;;;7.20;99.90;;;;;;5090818;28;20087;-75
2021/03/17 09:35:48;;;;;;;12.65;8.32;;;6.80;99.90;;;;;;5090583;28;20131;-75
2021/03/17 09:38:17;;;;;;;8.80;6.10;;;6.70;99.90;;;;;;5089700;28;20056;-74
2021/03/17 09:40:51;;;;;;;8.50;6.68;;;6.50;99.90;;;;;;5090472;28;20125;-74
2021/03/17 09:43:43;;;;;;;11.95;7.22;;;6.50;99.90;;;;;;5090480;28;20137;-74
2021/03/17 09:46:32;;;;;;;10.52;6.10;;;6.60;99.90;;;;;;5090509;28;20143;-75
2021/03/17 09:49:01;;;;;;;11.15;6.97;;;6.70;99.90;;;;;;5090167;28;20071;-76
2021/03/17 09:51:30;;;;;;;11.15;7.13;;;6.80;99.90;;;;;;5090496;28;20140;-75
2021/03/17 09:53:59;;;;;;;15.35;7.95;;;6.90;99.90;;;;;;5094137;28;20094;-76
2021/03/17 09:56:45;;;;;;;11.98;7.55;;;6.90;99.90;;;;;;5093242;28;20096;-75
2021/03/17 09:59:20;;;;;;;10.52;7.90;;;7.00;99.90;;;;;;5093842;28;20048;-76
2021/03/17 10:01:52;;;;;;;18.40;14.52;;;7.00;99.90;;;;;;5094640;28;20097;-75
2021/03/17 10:04:19;;;;;;;20.05;14.52;;;6.80;99.90;;;;;;5093782;28;20044;-76
2021/03/17 10:06:46;;;;;;;19.10;13.75;;;6.90;99.90;;;;;;5093409;28;20044;-76
2021/03/17 10:09:13;;;;;;;10.40;8.40;;;6.80;99.90;;;;;;5093436;28;20070;-76
2021/03/17 10:11:39;;;;;;;12.73;8.02;;;6.80;99.90;;;;;;5095536;28;20056;-73
2021/03/17 10:14:12;;;;;;;9.82;6.53;;;6.90;99.90;;;;;;5096230;28;20126;-74
2021/03/17 10:16:38;;;;;;;11.65;6.65;;;6.90;99.90;;;;;;5092699;28;20123;-74
2021/03/17 10:19:05;;;;;;;12.15;6.95;;;6.90;99.90;;;;;;5092985;28;20184;-75
2021/03/17 10:21:31;;;;;;;13.95;7.47;;;7.00;99.90;;;;;;5093504;28;20055;-76
2021/03/17 10:23:59;;;;;;;6.55;4.40;;;7.00;99.90;;;;;;5093156;28;20139;-77
2021/03/17 10:26:26;;;;;;;8.43;4.07;;;6.90;99.90;;;;;;5092509;28;20131;-78
2021/03/17 10:28:53;;;;;;;7.35;4.40;;;6.80;99.90;;;;;;5072563;28;20057;-75
2021/03/17 10:31:21;;;;;;;9.45;4.47;;;6.80;99.90;;;;;;5072866;28;20464;-75
2021/03/17 10:33:48;;;;;;;11.40;4.75;;;6.70;99.90;;;;;;5073618;28;20421;-75
2021/03/17 10:36:14;;;;;;;7.93;4.60;;;6.70;99.90;;;;;;5074138;28;20459;-76
2021/03/17 10:38:50;;;;;;;8.95;5.38;;;6.80;99.90;;;;;;5080279;28;20127;-75
2021/03/17 10:41:38;;;;;;;9.13;4.00;;;6.80;99.90;;;;;;5085010;28;20044;-74
2021/03/17 10:44:16;;;;;;;7.53;4.20;;;6.90;99.90;;;;;;5091543;28;20532;-75
2021/03/17 10:47:12;;;;;;;7.78;4.82;;;7.10;99.90;;;;;;5087659;28;20126;-76
2021/03/17 10:49:45;;;;;;;10.25;5.65;;;7.30;99.90;;;;;;5093107;28;20127;-75
2021/03/17 10:52:13;;;;;;;8.73;5.15;;;7.30;99.90;;;;;;5092959;28;20062;-76
2021/03/17 10:54:42;;;;;;;7.60;5.60;;;7.30;99.90;;;;;;5092063;28;20044;-76
2021/03/17 10:57:10;;;;;;;8.15;4.95;;;7.30;99.90;;;;;;5091817;28;20086;-76
2021/03/17 10:59:38;;;;;;;6.32;4.40;;;7.40;99.90;;;;;;5092510;28;20055;-76
2021/03/17 11:02:25;;;;;;;7.95;4.75;;;7.30;99.90;;;;;;5092870;28;20079;-75
2021/03/17 11:05:11;;;;;;;8.68;5.03;;;7.20;99.90;;;;;;5092656;28;20059;-75
2021/03/17 11:07:55;;;;;;;10.38;4.78;;;7.10;99.90;;;;;;5091529;28;20052;-76
2021/03/17 11:10:48;;;;;;;7.45;4.18;;;6.90;99.90;;;;;;5092934;28;20052;-75
2021/03/17 11:13:38;;;;;;;5.40;3.17;;;7.00;99.90;;;;;;5092880;28;20135;-74
2021/03/17 11:16:14;;;;;;;7.60;4.43;;;6.90;99.90;;;;;;5092647;28;20090;-77
2021/03/17 11:18:46;;;;;;;7.32;4.18;;;6.90;99.90;;;;;;5091771;28;20096;-75
2021/03/17 11:21:21;;;;;;;7.57;5.40;;;6.90;99.90;;;;;;5093682;28;20051;-75
2021/03/17 11:23:47;;;;;;;6.93;4.50;;;6.50;99.90;;;;;;5092084;28;20514;-75
2021/03/17 11:26:29;;;;;;;7.50;4.97;;;6.50;99.90;;;;;;5087829;28;20481;-76
2021/03/17 11:28:59;;;;;;;7.68;4.45;;;6.50;99.90;;;;;;5085518;28;20127;-75
2021/03/17 11:31:29;;;;;;;8.23;5.53;;;6.40;99.90;;;;;;5082270;28;20050;-74
2021/03/17 11:33:56;;;;;;;8.98;4.97;;;6.40;99.90;;;;;;5082739;28;20713;-75
2021/03/17 11:36:23;;;;;;;4.60;3.45;;;6.30;99.90;;;;;;5080099;28;20044;-75
2021/03/17 11:38:49;;;;;;;6.45;3.50;;;6.60;99.90;;;;;;5080104;28;20047;-76
2021/03/17 11:41:17;;;;;;;9.75;3.78;;;6.60;99.90;;;;;;5080258;28;20424;-76
2021/03/17 11:43:44;;;;;;;8.57;3.92;;;6.60;99.90;;;;;;5079095;28;20045;-77
2021/03/17 11:46:12;;;;;;;8.07;3.58;;;6.80;99.90;;;;;;5078235;28;20841;-79
2021/03/17 11:48:38;;;;;;;6.03;3.83;;;6.80;99.90;;;;;;5085847;28;20082;-78
2021/03/17 11:51:07;;;;;;;7.97;3.92;;;6.80;99.90;;;;;;5080520;28;20123;-78
2021/03/17 11:53:34;;;;;;;8.43;3.83;;;6.90;99.90;;;;;;5092127;28;20137;-76
2021/03/17 11:56:01;;;;;;;6.50;3.97;;;6.80;99.90;;;;;;5091098;28;20135;-76
2021/03/17 11:58:28;;;;;;;6.53;4.00;;;7.00;99.90;;;;;;5092397;28;20048;-77
2021/03/17 12:00:54;;;;;;;5.68;3.88;;;7.10;99.90;;;;;;5092479;28;20135;-76
2021/03/17 12:03:21;;;;;;;8.27;3.80;;;6.90;99.90;;;;;;5092629;28;20136;-76
2021/03/17 12:05:48;;;;;;;6.82;4.20;;;6.90;99.90;;;;;;5092806;28;20126;-77
2021/03/17 12:08:15;;;;;;;7.43;4.30;;;6.90;99.90;;;;;;5092612;28;20083;-76
2021/03/17 12:10:42;;;;;;;10.05;4.82;;;6.90;99.90;;;;;;5092431;28;20064;-75
2021/03/17 12:13:08;;;;;;;8.48;5.05;;;7.00;99.90;;;;;;5092298;28;20538;-76
2021/03/17 12:15:35;;;;;;;9.35;5.00;;;7.20;99.90;;;;;;5091276;28;20048;-77
2021/03/17 12:18:01;;;;;;;6.25;4.65;;;7.30;99.90;;;;;;5092425;28;20138;-75
2021/03/17 12:20:30;;;;;;;6.45;4.32;;;7.20;99.90;;;;;;5091857;28;20124;-75
2021/03/17 12:22:57;;;;;;;8.98;4.80;;;7.00;99.90;;;;;;5091202;28;20066;-72
2021/03/17 12:25:23;;;;;;;8.23;5.00;;;6.90;99.90;;;;;;5087044;28;20048;-76
2021/03/17 12:27:50;;;;;;;7.72;4.55;;;6.70;99.90;;;;;;5084610;28;20105;-76
2021/03/17 12:30:19;;;;;;;6.60;4.50;;;6.60;99.90;;;;;;5082477;28;20048;-76
2021/03/17 12:32:47;;;;;;;8.25;4.75;;;6.60;99.90;;;;;;5084104;28;20047;-77
2021/03/17 12:35:15;;;;;;;8.10;5.25;;;6.70;99.90;;;;;;5080718;28;20148;-77
2021/03/17 12:37:44;;;;;;;9.80;4.70;;;6.60;99.90;;;;;;5080209;28;20050;-76
2021/03/17 12:40:14;;;;;;;6.75;4.78;;;6.70;99.90;;;;;;5080782;28;20151;-76
2021/03/17 12:42:40;;;;;;;5.80;4.35;;;6.80;99.90;;;;;;5082980;28;20131;-77
2021/03/17 12:45:09;;;;;;;5.25;4.40;;;6.90;99.90;;;;;;5079907;28;20044;-76
2021/03/17 12:47:36;;;;;;;6.97;4.32;;;7.00;99.90;;;;;;5081232;28;20127;-77
2021/03/17 12:50:03;;;;;;;5.75;3.33;;;7.10;99.90;;;;;;5082492;28;20131;-78
2021/03/17 12:52:29;;;;;;;7.75;3.40;;;7.00;99.90;;;;;;5082086;28;20134;-76
2021/03/17 12:54:57;;;;;;;6.40;3.60;;;7.00;99.90;;;;;;5080812;28;20052;-76
2021/03/17 12:57:23;;;;;;;7.20;3.60;;;7.00;99.90;;;;;;5081669;28;20044;-76
2021/03/17 12:59:49;;;;;;;5.85;3.70;;;7.20;99.90;;;;;;5081913;28;20087;-77
2021/03/17 13:02:16;;;;;;;7.05;3.10;;;7.20;99.90;;;;;;5080347;28;20139;-77
2021/03/17 13:04:42;;;;;;;7.20;3.53;;;7.30;99.90;;;;;;5082026;28;20139;-75
2021/03/17 13:07:10;;;;;;;5.07;2.92;;;7.60;99.90;;;;;;5081023;28;20064;-76
2021/03/17 13:09:36;;;;;;;7.43;3.28;;;7.90;99.90;;;;;;5080307;28;20128;-76
2021/03/17 13:12:04;;;;;;;10.05;3.75;;;8.00;99.90;;;;;;5082254;28;20048;-75
2021/03/17 13:14:31;;;;;;;7.50;4.07;;;8.00;99.90;;;;;;5079737;28;20135;-76
2021/03/17 13:16:57;;;;;;;10.63;4.32;;;8.00;99.90;;;;;;5081828;28;20126;-76
2021/03/17 13:19:24;;;;;;;9.95;4.55;;;7.70;99.90;;;;;;5080621;28;20219;-76
2021/03/17 13:21:51;;;;;;;8.10;6.03;;;7.70;99.90;;;;;;5080731;28;20123;-75
2021/03/17 13:24:18;;;;;;;12.45;6.35;;;7.30;99.90;;;;;;5081869;28;20136;-75
2021/03/17 13:26:45;;;;;;;10.90;6.35;;;7.20;99.90;;;;;;5082126;28;20072;-75
2021/03/17 13:29:12;;;;;;;7.78;4.82;;;7.20;99.90;;;;;;5085886;28;20131;-75
2021/03/17 13:31:39;;;;;;;9.18;4.93;;;7.40;99.90;;;;;;5085912;28;20135;-76
2021/03/17 13:34:06;;;;;;;7.32;4.25;;;7.50;99.90;;;;;;5085852;28;20139;-75